createdAt,value
2018-06-19T00:01:22.157Z,70.70
2018-06-19T00:03:51.437Z,71.10
2018-06-19T00:06:20.737Z,71.40
2018-06-19T00:08:51.477Z,71.50
2018-06-19T00:11:20.798Z,71.30
2018-06-19T00:13:50.436Z,70.90
2018-06-19T00:16:19.875Z,70.90
2018-06-19T00:18:58.955Z,70.30
2018-06-19T00:21:34.216Z,70.40
2018-06-19T00:24:03.635Z,70.20
2018-06-19T00:26:33.174Z,70.00
2018-06-19T00:29:02.714Z,70.20
2018-06-19T00:31:32.006Z,70.00
2018-06-19T00:34:01.255Z,70.50
2018-06-19T00:36:32.317Z,69.90
2018-06-19T00:39:01.757Z,70.70
2018-06-19T00:41:31.055Z,70.20
2018-06-19T00:44:00.335Z,70.20
2018-06-19T00:46:30.515Z,70.20
2018-06-19T00:48:59.755Z,70.10
2018-06-19T00:51:31.295Z,70.40
2018-06-19T00:54:00.574Z,70.80
2018-06-19T00:56:40.515Z,70.70
2018-06-19T00:59:09.855Z,70.50
2018-06-19T01:01:39.216Z,70.90
2018-06-19T01:04:08.715Z,70.20
2018-06-19T01:06:37.995Z,70.10
2018-06-19T01:09:09.234Z,70.70
2018-06-19T01:11:38.777Z,71.30
2018-06-19T01:14:08.356Z,71.60
2018-06-19T01:16:37.716Z,71.60
2018-06-19T01:19:07.435Z,71.40
2018-06-19T01:24:05.995Z,72.20
2018-06-19T01:26:35.775Z,71.40
2018-06-19T01:29:05.097Z,71.80
2018-06-19T01:31:34.295Z,71.80
2018-06-19T01:34:03.775Z,71.80
2018-06-19T01:36:33.195Z,71.60
2018-06-19T01:39:02.597Z,71.70
2018-06-19T01:41:34.982Z,71.70
2018-06-19T01:44:04.375Z,72.10
2018-06-19T01:46:33.635Z,72.50
2018-06-19T01:49:03.016Z,72.10
2018-06-19T01:51:32.415Z,72.30
2018-06-19T01:54:01.955Z,68.00
2018-06-19T01:56:31.296Z,66.10
2018-06-19T01:59:00.797Z,69.60
2018-06-19T02:01:30.455Z,70.30
2018-06-19T02:04:00.177Z,69.60
2018-06-19T02:06:29.496Z,69.50
2018-06-19T02:08:58.797Z,74.00
2018-06-19T02:11:28.177Z,74.40
2018-06-19T02:13:57.537Z,75.90
2018-06-19T02:16:26.878Z,76.20
2018-06-19T02:18:56.116Z,76.30
2018-06-19T02:21:25.776Z,77.60
2018-06-19T02:23:55.197Z,76.90
2018-06-19T02:28:54.436Z,75.30
2018-06-19T02:31:23.861Z,74.60
2018-06-19T02:33:53.439Z,75.50
2018-06-19T02:36:23.016Z,73.90
2018-06-19T02:38:52.295Z,74.10
2018-06-19T02:41:21.660Z,73.50
2018-06-19T02:43:51.296Z,73.60
2018-06-19T02:46:20.757Z,73.60
2018-06-19T02:48:50.095Z,73.10
2018-06-19T02:51:19.935Z,72.80
2018-06-19T02:53:49.358Z,72.80
2018-06-19T02:56:19.255Z,72.80
2018-06-19T02:58:48.594Z,72.50
2018-06-19T03:01:18.255Z,73.60
2018-06-19T03:03:47.474Z,73.60
2018-06-19T03:06:16.895Z,73.50
2018-06-19T03:08:46.155Z,72.90
2018-06-19T03:11:15.555Z,72.50
2018-06-19T03:13:44.995Z,74.30
2018-06-19T03:16:14.435Z,74.20
2018-06-19T03:18:43.576Z,73.90
2018-06-19T03:21:13.015Z,74.10
2018-06-19T03:23:42.354Z,73.00
2018-06-19T03:26:11.635Z,75.30
2018-06-19T03:28:41.334Z,76.40
2018-06-19T03:31:10.742Z,77.30
2018-06-19T03:33:40.728Z,76.70
2018-06-19T03:36:10.276Z,76.70
2018-06-19T03:38:39.775Z,78.00
2018-06-19T03:41:09.135Z,76.80
2018-06-19T03:43:39.554Z,73.80
2018-06-19T03:46:08.955Z,68.50
2018-06-19T03:48:38.315Z,64.30
2018-06-19T03:51:07.875Z,61.10
2018-06-19T03:53:37.255Z,59.80
2018-06-19T03:56:06.574Z,57.70
2018-06-19T03:58:35.914Z,56.10
2018-06-19T04:01:05.358Z,55.10
2018-06-19T04:03:34.560Z,54.40
2018-06-19T04:06:04.199Z,54.80
2018-06-19T04:08:33.500Z,54.10
2018-06-19T04:13:41.137Z,51.40
2018-06-19T04:16:10.603Z,50.40
2018-06-19T04:18:40.038Z,50.90
2018-06-19T04:21:09.477Z,50.00
2018-06-19T04:23:38.919Z,48.80
2018-06-19T04:26:08.358Z,49.10
2018-06-19T04:28:37.727Z,48.50
2018-06-19T04:31:07.197Z,49.40
2018-06-19T04:36:05.578Z,51.40
2018-06-19T04:38:34.840Z,52.10
2018-06-19T04:41:04.257Z,51.90
2018-06-19T04:43:33.598Z,52.50
2018-06-19T04:46:02.982Z,55.70
2018-06-19T04:48:32.678Z,57.70
2018-06-19T04:51:02.042Z,59.30
2018-06-19T04:53:31.297Z,58.00
2018-06-19T04:56:00.497Z,55.80
2018-06-19T04:58:29.959Z,56.70
2018-06-19T05:00:59.234Z,56.70
2018-06-19T05:03:28.434Z,57.90
2018-06-19T05:05:57.675Z,58.40
2018-06-19T05:08:27.014Z,58.50
2018-06-19T05:10:56.145Z,56.70
2018-06-19T05:13:25.458Z,54.80
2018-06-19T05:15:54.696Z,55.60
2018-06-19T05:18:24.238Z,53.70
2018-06-19T05:20:53.596Z,56.30
2018-06-19T05:23:23.017Z,55.80
2018-06-19T05:25:52.276Z,55.30
2018-06-19T05:28:21.794Z,54.80
2018-06-19T05:30:51.217Z,53.50
2018-06-19T05:33:24.936Z,53.60
2018-06-19T05:38:23.055Z,51.20
2018-06-19T05:40:52.383Z,49.20
2018-06-19T05:43:21.716Z,49.30
2018-06-19T05:48:19.863Z,50.50
2018-06-19T05:50:49.318Z,46.30
2018-06-19T05:53:22.937Z,46.10
2018-06-19T05:55:52.137Z,45.30
2018-06-19T05:58:21.440Z,46.90
2018-06-19T06:00:50.922Z,46.40
2018-06-19T06:03:24.618Z,49.90
2018-06-19T06:08:22.516Z,48.80
2018-06-19T06:10:51.659Z,49.20
2018-06-19T06:13:20.823Z,51.60
2018-06-19T06:21:30.603Z,49.20
2018-06-19T06:23:59.820Z,49.20
2018-06-19T06:26:29.002Z,50.70
2018-06-19T06:28:58.197Z,52.50
2018-06-19T06:31:27.303Z,47.70
2018-06-19T06:33:56.620Z,49.80
2018-06-19T06:36:25.879Z,49.50
2018-06-19T06:38:55.083Z,49.40
2018-06-19T06:41:24.387Z,50.60
2018-06-19T06:43:53.526Z,49.50
2018-06-19T06:46:23.338Z,49.20
2018-06-19T06:48:52.698Z,50.20
2018-06-19T06:51:22.137Z,48.80
2018-06-19T06:53:51.635Z,47.60
2018-06-19T06:56:21.061Z,49.40
2018-06-19T06:58:50.515Z,50.90
2018-06-19T07:01:19.936Z,47.60
2018-06-19T07:03:49.479Z,50.50
2018-06-19T07:06:19.017Z,48.70
2018-06-19T07:08:48.400Z,49.70
2018-06-19T07:11:17.802Z,47.20
2018-06-19T07:13:47.019Z,48.30
2018-06-19T07:16:16.698Z,46.50
2018-06-19T07:18:45.915Z,46.70
2018-06-19T07:21:15.115Z,47.10
2018-06-19T07:23:44.562Z,46.90
2018-06-19T07:26:13.855Z,48.80
2018-06-19T07:28:43.337Z,47.70
2018-06-19T07:31:13.237Z,49.10
2018-06-19T07:33:42.765Z,49.60
2018-06-19T07:36:12.177Z,49.00
2018-06-19T07:41:11.080Z,49.70
2018-06-19T07:43:40.801Z,49.30
2018-06-19T07:46:10.643Z,49.50
2018-06-19T07:48:39.978Z,49.30
2018-06-19T07:51:09.477Z,48.20
2018-06-19T07:53:38.857Z,47.40
2018-06-19T07:56:08.097Z,47.50
2018-06-19T07:58:37.405Z,45.60
2018-06-19T08:01:06.861Z,45.20
2018-06-19T08:03:37.495Z,46.40
2018-06-19T08:06:06.935Z,45.20
2018-06-19T08:08:36.415Z,46.10
2018-06-19T08:11:05.756Z,46.00
2018-06-19T08:13:35.115Z,46.00
2018-06-19T08:16:05.976Z,44.80
2018-06-19T08:18:35.836Z,44.20
2018-06-19T08:21:05.131Z,46.70
2018-06-19T08:23:34.396Z,48.40
2018-06-19T08:26:04.296Z,50.00
2018-06-19T08:31:02.480Z,47.00
2018-06-19T08:33:31.744Z,46.50
2018-06-19T08:36:01.424Z,48.50
2018-06-19T08:38:30.723Z,45.70
2018-06-19T08:41:00.171Z,46.90
2018-06-19T08:43:29.515Z,46.70
2018-06-19T08:46:03.459Z,48.70
2018-06-19T08:48:32.372Z,45.50
2018-06-19T08:51:01.764Z,44.00
2018-06-19T08:56:56.074Z,46.60
2018-06-19T08:59:29.740Z,45.60
2018-06-19T09:01:59.032Z,48.10
2018-06-19T09:04:29.979Z,46.30
2018-06-19T09:06:59.659Z,44.70
2018-06-19T09:09:28.999Z,46.80
2018-06-19T09:11:58.382Z,45.10
2018-06-19T09:14:27.820Z,47.30
2018-06-19T09:16:57.099Z,49.10
2018-06-19T09:19:26.500Z,44.40
2018-06-19T09:21:55.879Z,47.40
2018-06-19T09:24:25.180Z,46.50
2018-06-19T09:26:55.020Z,46.70
2018-06-19T09:29:24.839Z,45.70
2018-06-19T09:31:55.283Z,49.10
2018-06-19T09:34:24.818Z,46.70
2018-06-19T09:36:54.414Z,50.90
2018-06-19T09:39:23.840Z,45.90
2018-06-19T09:41:53.099Z,45.10
2018-06-19T09:44:22.822Z,48.40
2018-06-19T09:46:52.102Z,50.00
2018-06-19T09:51:51.079Z,45.10
2018-06-19T09:54:20.840Z,43.50
2018-06-19T09:56:51.417Z,44.80
2018-06-19T09:59:21.093Z,44.90
2018-06-19T10:01:50.667Z,48.20
2018-06-19T10:04:20.095Z,48.80
2018-06-19T10:06:49.295Z,43.90
2018-06-19T10:09:19.115Z,47.90
2018-06-19T10:11:48.659Z,45.80
2018-06-19T10:14:18.156Z,49.60
2018-06-19T10:16:47.671Z,46.90
2018-06-19T10:19:16.996Z,47.20
2018-06-19T10:21:46.355Z,45.80
2018-06-19T10:24:15.995Z,45.60
2018-06-19T10:26:45.677Z,44.10
2018-06-19T10:29:15.205Z,46.90
2018-06-19T10:31:44.681Z,48.30
2018-06-19T10:34:14.058Z,47.90
2018-06-19T10:36:43.318Z,46.20
2018-06-19T10:39:12.878Z,46.90
2018-06-19T10:46:40.499Z,49.40
2018-06-19T10:49:10.021Z,48.80
2018-06-19T10:51:39.339Z,48.60
2018-06-19T10:54:09.902Z,49.60
2018-06-19T10:56:39.857Z,48.40
2018-06-19T10:59:09.487Z,44.30
2018-06-19T11:01:38.936Z,45.60
2018-06-19T11:04:08.576Z,48.10
2018-06-19T11:06:37.816Z,49.80
2018-06-19T11:09:09.804Z,46.90
2018-06-19T11:11:39.338Z,48.40
2018-06-19T11:14:08.828Z,47.20
2018-06-19T11:16:38.117Z,47.40
2018-06-19T11:19:07.458Z,47.30
2018-06-19T11:21:36.723Z,45.20
2018-06-19T11:26:35.056Z,46.70
2018-06-19T11:29:04.358Z,48.10
2018-06-19T11:31:33.682Z,47.50
2018-06-19T11:34:03.116Z,46.70
2018-06-19T11:36:32.138Z,47.00
2018-06-19T11:39:01.459Z,46.30
2018-06-19T11:41:30.857Z,45.10
2018-06-19T11:44:00.256Z,46.00
2018-06-19T11:46:29.799Z,47.30
2018-06-19T11:48:59.236Z,47.80
2018-06-19T11:51:28.657Z,48.50
2018-06-19T11:56:27.556Z,48.50
2018-06-19T12:01:30.379Z,47.90
2018-06-19T12:03:59.760Z,47.10
2018-06-19T12:08:58.219Z,48.00
2018-06-19T12:11:27.722Z,50.50
2018-06-19T12:13:57.461Z,48.90
2018-06-19T12:16:26.919Z,48.60
2018-06-19T12:18:56.380Z,49.60
2018-06-19T12:21:25.882Z,47.00
2018-06-19T12:23:55.839Z,47.90
2018-06-19T12:26:25.219Z,45.70
2018-06-19T12:28:54.359Z,45.80
2018-06-19T12:31:28.040Z,46.50
2018-06-19T12:33:57.559Z,47.50
2018-06-19T12:36:28.044Z,46.40
2018-06-19T12:38:57.479Z,45.30
2018-06-19T12:41:36.415Z,45.10
2018-06-19T12:44:06.048Z,48.30
2018-06-19T12:46:35.302Z,52.10
2018-06-19T12:49:08.838Z,43.20
2018-06-19T12:51:51.758Z,41.80
2018-06-19T12:54:34.002Z,45.70
2018-06-19T12:57:03.278Z,45.60
2018-06-19T12:59:32.777Z,45.60
2018-06-19T13:02:01.981Z,44.00
2018-06-19T13:05:39.078Z,44.10
2018-06-19T13:08:08.460Z,44.70
2018-06-19T13:10:38.358Z,46.60
2018-06-19T13:15:53.338Z,47.00
2018-06-19T13:20:36.798Z,46.10
2018-06-19T13:23:05.943Z,44.50
2018-06-19T13:25:35.109Z,44.50
2018-06-19T13:28:04.902Z,47.40
2018-06-19T13:30:44.936Z,43.50
2018-06-19T13:33:18.336Z,42.80
2018-06-19T13:35:47.518Z,45.40
2018-06-19T13:38:16.550Z,44.80
2018-06-19T13:41:07.380Z,46.70
2018-06-19T13:43:48.737Z,45.70
2018-06-19T13:46:17.958Z,45.00
2018-06-19T13:48:47.100Z,48.90
2018-06-19T13:51:16.277Z,45.30
2018-06-19T13:53:45.977Z,45.30
2018-06-19T13:57:44.078Z,46.60
2018-06-19T14:00:21.370Z,44.60
2018-06-19T14:02:51.198Z,48.70
2018-06-19T14:05:20.997Z,45.10
2018-06-19T14:08:04.837Z,45.90
2018-06-19T14:10:44.897Z,45.60
2018-06-19T14:13:14.257Z,44.20
2018-06-19T14:18:18.857Z,46.10
2018-06-19T14:23:17.160Z,45.00
2018-06-19T14:25:51.077Z,46.20
2018-06-19T14:28:22.241Z,47.00
2018-06-19T14:30:51.879Z,47.80
2018-06-19T14:33:21.319Z,47.70
2018-06-19T14:35:50.757Z,48.10
2018-06-19T14:38:20.476Z,49.50
2018-06-19T14:40:49.698Z,47.80
2018-06-19T14:43:18.936Z,49.70
2018-06-19T14:45:48.341Z,49.50
2018-06-19T14:48:17.536Z,48.80
2018-06-19T14:50:47.256Z,49.50
2018-06-19T14:53:17.136Z,48.80
2018-06-19T14:55:46.336Z,46.90
2018-06-19T14:58:15.656Z,46.10
2018-06-19T15:00:45.000Z,46.90
2018-06-19T15:03:14.361Z,45.80
2018-06-19T15:08:12.957Z,47.50
2018-06-19T15:10:42.323Z,45.10
2018-06-19T15:13:11.681Z,46.50
2018-06-19T15:15:41.116Z,47.80
2018-06-19T15:18:10.918Z,46.50
2018-06-19T15:20:40.398Z,47.90
2018-06-19T15:23:09.717Z,47.40
2018-06-19T15:25:39.198Z,47.10
2018-06-19T15:28:08.621Z,44.20
2018-06-19T15:30:37.997Z,47.20
2018-06-19T15:33:07.877Z,44.50
2018-06-19T15:35:37.475Z,44.30
2018-06-19T15:38:07.896Z,43.60
2018-06-19T15:40:37.422Z,43.40
2018-06-19T15:43:06.914Z,43.40
2018-06-19T15:45:36.375Z,44.20
2018-06-19T15:48:05.675Z,46.30
2018-06-19T15:50:35.235Z,45.90
2018-06-19T15:53:08.955Z,47.00
2018-06-19T15:55:38.275Z,47.00
2018-06-19T15:58:07.617Z,46.70
2018-06-19T16:00:37.101Z,46.50
2018-06-19T16:03:06.459Z,46.30
2018-06-19T16:05:35.881Z,47.70
2018-06-19T16:08:10.700Z,47.20
2018-06-19T16:10:39.983Z,46.20
2018-06-19T16:13:09.419Z,47.20
2018-06-19T16:15:38.799Z,45.60
2018-06-19T16:18:08.310Z,44.70
2018-06-19T16:20:38.701Z,45.90
2018-06-19T16:23:08.523Z,43.90
2018-06-19T16:25:37.740Z,44.60
2018-06-19T16:28:07.375Z,46.00
2018-06-19T16:30:36.775Z,46.80
2018-06-19T16:33:10.518Z,46.10
2018-06-19T16:35:39.938Z,45.60
2018-06-19T16:38:09.156Z,46.40
2018-06-19T16:40:38.835Z,46.40
2018-06-19T16:43:08.124Z,46.50
2018-06-19T16:45:37.495Z,46.20
2018-06-19T16:48:07.178Z,45.80
2018-06-19T16:50:37.115Z,47.40
2018-06-19T16:53:06.335Z,46.90
2018-06-19T16:55:39.695Z,47.10
2018-06-19T16:58:09.975Z,47.60
2018-06-19T17:00:39.185Z,47.00
2018-06-19T17:03:08.860Z,46.00
2018-06-19T17:05:38.520Z,47.80
2018-06-19T17:08:08.043Z,48.20
2018-06-19T17:10:37.461Z,48.10
2018-06-19T17:13:06.920Z,47.80
2018-06-19T17:15:36.361Z,48.30
2018-06-19T17:18:05.601Z,48.70
2018-06-19T17:23:03.560Z,48.00
2018-06-19T17:25:32.778Z,48.60
2018-06-19T17:28:02.402Z,49.00
2018-06-19T17:30:32.128Z,49.20
2018-06-19T17:33:02.159Z,48.20
2018-06-19T17:35:31.658Z,47.90
2018-06-19T17:38:00.999Z,48.20
2018-06-19T17:40:30.436Z,48.30
2018-06-19T17:42:59.710Z,48.60
2018-06-19T17:45:29.136Z,48.70
2018-06-19T17:47:58.518Z,48.70
2018-06-19T17:50:27.799Z,49.10
2018-06-19T17:52:57.056Z,48.70
2018-06-19T17:55:26.358Z,49.60
2018-06-19T17:57:56.417Z,49.40
2018-06-19T18:00:26.985Z,50.20
2018-06-19T18:02:56.706Z,50.30
2018-06-19T18:05:25.978Z,49.60
2018-06-19T18:07:55.540Z,50.40
2018-06-19T18:10:24.919Z,50.60
2018-06-19T18:15:23.113Z,51.00
2018-06-19T18:17:52.537Z,51.00
2018-06-19T18:20:21.918Z,50.40
2018-06-19T18:22:51.242Z,50.70
2018-06-19T18:25:24.860Z,50.80
2018-06-19T18:27:54.423Z,51.30
2018-06-19T18:30:24.340Z,51.50
2018-06-19T18:32:53.703Z,51.90
2018-06-19T18:35:23.122Z,52.00
2018-06-19T18:37:52.437Z,52.50
2018-06-19T18:40:22.156Z,51.30
2018-06-19T18:42:51.457Z,51.10
2018-06-19T18:45:20.781Z,52.10
2018-06-19T18:47:50.736Z,52.30
2018-06-19T18:50:20.178Z,51.90
2018-06-19T18:52:53.476Z,51.60
2018-06-19T18:55:22.781Z,51.80
2018-06-19T19:02:50.689Z,52.70
2018-06-19T19:05:20.125Z,52.90
2018-06-19T19:07:49.484Z,53.30
2018-06-19T19:10:24.044Z,53.60
2018-06-19T19:12:53.427Z,53.70
2018-06-19T19:15:27.831Z,54.60
2018-06-19T19:18:02.164Z,54.50
2018-06-19T19:20:31.504Z,55.00
2018-06-19T19:23:00.904Z,55.50
2018-06-19T19:28:03.876Z,54.40
2018-06-19T19:30:33.436Z,55.80
2018-06-19T19:33:02.764Z,54.90
2018-06-19T19:35:32.397Z,54.50
2018-06-19T19:38:06.756Z,54.70
2018-06-19T19:40:36.506Z,55.50
2018-06-19T19:43:05.984Z,55.80
2018-06-19T19:45:35.743Z,55.30
2018-06-19T19:48:10.318Z,55.80
2018-06-19T19:50:39.758Z,56.00
2018-06-19T19:53:09.138Z,55.30
2018-06-19T19:55:43.517Z,55.30
2018-06-19T19:58:17.940Z,56.70
2018-06-19T20:00:47.425Z,55.50
2018-06-19T20:03:16.802Z,56.20
2018-06-19T20:05:46.337Z,56.50
2018-06-19T20:08:21.178Z,56.10
2018-06-19T20:10:51.617Z,56.70
2018-06-19T20:13:20.957Z,57.20
2018-06-19T20:15:50.957Z,57.20
2018-06-19T20:18:20.198Z,57.90
2018-06-19T20:20:49.517Z,57.20
2018-06-19T20:23:18.896Z,57.00
2018-06-19T20:25:48.903Z,58.10
2018-06-19T20:28:22.462Z,60.50
2018-06-19T20:30:51.885Z,60.80
2018-06-19T20:33:21.517Z,61.10
2018-06-19T20:35:51.319Z,61.40
2018-06-19T20:38:21.037Z,60.70
2018-06-19T20:40:50.877Z,61.50
2018-06-19T20:43:20.158Z,59.00
2018-06-19T20:45:49.476Z,55.30
2018-06-19T20:48:18.807Z,55.70
2018-06-19T20:50:48.030Z,56.80
2018-06-19T20:53:17.176Z,59.10
2018-06-19T20:55:46.416Z,58.30
2018-06-19T20:58:15.755Z,57.80
2018-06-19T21:00:45.055Z,58.30
2018-06-19T21:03:14.277Z,57.40
2018-06-19T21:05:43.897Z,58.40
2018-06-19T21:08:13.146Z,59.00
2018-06-19T21:10:42.380Z,57.80
2018-06-19T21:13:11.517Z,61.10
2018-06-19T21:15:40.677Z,63.20
2018-06-19T21:18:09.837Z,64.20
2018-06-19T21:20:38.997Z,64.50
2018-06-19T21:23:08.352Z,65.30
2018-06-19T21:25:37.617Z,66.70
2018-06-19T21:28:07.141Z,66.60
2018-06-19T21:30:36.437Z,65.60
2018-06-19T21:33:05.738Z,65.40
2018-06-19T21:35:35.117Z,64.70
2018-06-19T21:38:04.336Z,65.50
2018-06-19T21:40:33.896Z,65.80
2018-06-19T21:43:03.156Z,65.20
2018-06-19T21:45:32.396Z,65.20
2018-06-19T21:48:01.576Z,67.20
2018-06-19T21:50:30.677Z,67.00
2018-06-19T21:52:59.897Z,65.40
2018-06-19T21:55:29.056Z,66.20
2018-06-19T21:57:58.296Z,65.80
2018-06-19T22:00:27.396Z,65.90
2018-06-19T22:03:00.656Z,65.90
2018-06-19T22:05:29.818Z,65.40
2018-06-19T22:07:58.995Z,65.50
2018-06-19T22:10:28.315Z,65.00
2018-06-19T22:12:57.615Z,64.80
2018-06-19T22:15:26.777Z,65.10
2018-06-19T22:20:24.398Z,66.00
2018-06-19T22:22:53.596Z,65.70
2018-06-19T22:25:22.696Z,66.10
2018-06-19T22:27:51.935Z,65.80
2018-06-19T22:30:21.136Z,66.60
2018-06-19T22:32:50.296Z,65.80
2018-06-19T22:35:22.295Z,66.30
2018-06-19T22:37:51.516Z,65.40
2018-06-19T22:40:20.835Z,65.20
2018-06-19T22:42:51.656Z,65.80
2018-06-19T22:45:20.814Z,66.20
2018-06-19T22:47:50.134Z,66.00
2018-06-19T22:50:23.422Z,65.60
2018-06-19T22:52:52.542Z,65.30
2018-06-19T22:55:21.737Z,65.70
2018-06-19T22:57:55.298Z,65.80
2018-06-19T23:00:28.557Z,65.90
2018-06-19T23:03:03.038Z,66.40
2018-06-19T23:05:32.876Z,66.60
2018-06-19T23:08:02.217Z,67.10
2018-06-19T23:10:31.476Z,67.70
2018-06-19T23:13:02.309Z,69.20
2018-06-19T23:15:31.466Z,69.40
2018-06-19T23:18:00.597Z,69.40
2018-06-19T23:20:29.966Z,68.80
2018-06-19T23:22:59.907Z,68.90
2018-06-19T23:25:29.195Z,72.30
2018-06-19T23:27:58.536Z,73.30
2018-06-19T23:30:27.876Z,73.20
2018-06-19T23:32:57.247Z,65.40
2018-06-19T23:35:26.619Z,66.40
2018-06-19T23:37:55.936Z,67.70
2018-06-19T23:40:25.175Z,60.70
2018-06-19T23:42:54.856Z,68.50
2018-06-19T23:45:24.718Z,72.10
2018-06-19T23:47:54.056Z,72.60
2018-06-19T23:50:23.896Z,66.00
2018-06-19T23:52:53.235Z,67.30
2018-06-19T23:57:51.721Z,73.50
